Cleveland, North Carolina
Current Conditions -  °F | °C
As of 10:15 PM on Saturday 25 Oct 2014 (Local Time) from KRUQ Reporting Station
Clear Clear  
Wind Chill: 57°   Ceiling: Unl
Heat Index: 57°   Visibility: 10mi
Dew Point: 42°   Wind: 5mph
Humidity: 57%   Direction: 220°SW
Pressure: 29.93"   Gusts: NA
Location:  35.73°N, 80.68°W
Report Text: KRUQ 260215Z AUTO 22004KT 10SM CLR 14/06 A2993 RMK AO2 T01380055
Loading
Personal Weather Stations






























Interactive Weather Map
Tropical Storm Tracking
New forecast layout! Learn more

10-Day Weather Forecast

Advertisements
Track Severe Weather on mobile